sensor_id;sensor_type;location;lat;lon;timestamp;temperature;humidity
44447;DHT22;30152;52.066;5.358;2023-07-13T06:53:05;17.60;99.90
44447;DHT22;30152;52.066;5.358;2023-07-13T06:55:30;17.30;99.90
44447;DHT22;30152;52.066;5.358;2023-07-13T07:00:22;17.20;99.90
44447;DHT22;30152;52.066;5.358;2023-07-13T07:05:14;17.10;99.90
44447;DHT22;30152;52.066;5.358;2023-07-13T07:07:39;17.10;99.90
44447;DHT22;30152;52.066;5.358;2023-07-13T07:10:05;17.50;99.90
44447;DHT22;30152;52.066;5.358;2023-07-13T07:12:31;18.30;99.90
44447;DHT22;30152;52.066;5.358;2023-07-13T07:14:58;17.50;99.90
44447;DHT22;30152;52.066;5.358;2023-07-13T07:17:23;18.20;99.90
44447;DHT22;30152;52.066;5.358;2023-07-13T07:19:50;18.50;99.90
44447;DHT22;30152;52.066;5.358;2023-07-13T07:22:16;17.60;99.90
44447;DHT22;30152;52.066;5.358;2023-07-13T07:24:41;17.70;99.90
44447;DHT22;30152;52.066;5.358;2023-07-13T07:27:07;17.90;99.90
44447;DHT22;30152;52.066;5.358;2023-07-13T07:29:33;18.00;99.90
44447;DHT22;30152;52.066;5.358;2023-07-13T07:31:59;17.70;99.90
44447;DHT22;30152;52.066;5.358;2023-07-13T07:34:25;18.00;99.90
44447;DHT22;30152;52.066;5.358;2023-07-13T07:36:53;18.30;99.90
44447;DHT22;30152;52.066;5.358;2023-07-13T07:39:18;18.20;99.90
44447;DHT22;30152;52.066;5.358;2023-07-13T07:49:02;17.40;99.90
44447;DHT22;30152;52.066;5.358;2023-07-13T07:53:54;17.30;99.90
44447;DHT22;30152;52.066;5.358;2023-07-13T07:56:19;17.90;99.90
44447;DHT22;30152;52.066;5.358;2023-07-13T07:58:45;18.00;99.90
44447;DHT22;30152;52.066;5.358;2023-07-13T08:06:02;18.80;99.90
44447;DHT22;30152;52.066;5.358;2023-07-13T08:08:30;18.90;99.90
44447;DHT22;30152;52.066;5.358;2023-07-13T08:10:55;18.70;99.90
44447;DHT22;30152;52.066;5.358;2023-07-13T08:13:21;18.80;99.90
44447;DHT22;30152;52.066;5.358;2023-07-13T08:15:46;18.80;99.90
44447;DHT22;30152;52.066;5.358;2023-07-13T08:18:12;19.40;99.90
44447;DHT22;30152;52.066;5.358;2023-07-13T08:20:38;19.50;99.90
44447;DHT22;30152;52.066;5.358;2023-07-13T08:23:05;19.30;99.90
44447;DHT22;30152;52.066;5.358;2023-07-13T08:27:56;18.90;99.90
44447;DHT22;30152;52.066;5.358;2023-07-13T08:32:48;19.20;99.90
44447;DHT22;30152;52.066;5.358;2023-07-13T08:35:14;18.80;99.90
44447;DHT22;30152;52.066;5.358;2023-07-13T08:37:41;18.70;99.90
44447;DHT22;30152;52.066;5.358;2023-07-13T08:40:09;19.50;99.90
44447;DHT22;30152;52.066;5.358;2023-07-13T08:42:54;19.20;99.90
44447;DHT22;30152;52.066;5.358;2023-07-13T08:47:55;19.30;99.90
44447;DHT22;30152;52.066;5.358;2023-07-13T08:50:27;18.50;99.90
44447;DHT22;30152;52.066;5.358;2023-07-13T08:52:56;18.50;99.90
44447;DHT22;30152;52.066;5.358;2023-07-13T08:55:30;18.30;99.90
44447;DHT22;30152;52.066;5.358;2023-07-13T08:58:06;17.90;99.90
44447;DHT22;30152;52.066;5.358;2023-07-13T09:00:51;18.00;99.90
44447;DHT22;30152;52.066;5.358;2023-07-13T09:03:23;18.00;99.90
44447;DHT22;30152;52.066;5.358;2023-07-13T09:05:54;17.90;99.90
44447;DHT22;30152;52.066;5.358;2023-07-13T09:11:52;17.90;99.90
44447;DHT22;30152;52.066;5.358;2023-07-13T09:14:48;18.90;99.90
44447;DHT22;30152;52.066;5.358;2023-07-13T09:17:22;19.30;99.90
44447;DHT22;30152;52.066;5.358;2023-07-13T09:20:12;19.60;99.90
44447;DHT22;30152;52.066;5.358;2023-07-13T09:22:42;19.80;99.90
44447;DHT22;30152;52.066;5.358;2023-07-13T09:25:33;20.60;99.90
44447;DHT22;30152;52.066;5.358;2023-07-13T09:28:05;19.70;99.90
44447;DHT22;30152;52.066;5.358;2023-07-13T09:31:03;20.20;99.90
44447;DHT22;30152;52.066;5.358;2023-07-13T09:33:30;20.00;99.90
44447;DHT22;30152;52.066;5.358;2023-07-13T09:35:57;20.90;99.90
44447;DHT22;30152;52.066;5.358;2023-07-13T09:38:26;21.00;99.90
44447;DHT22;30152;52.066;5.358;2023-07-13T09:43:36;20.40;99.90
44447;DHT22;30152;52.066;5.358;2023-07-13T09:48:36;19.30;99.90
44447;DHT22;30152;52.066;5.358;2023-07-13T09:51:14;20.00;99.90
44447;DHT22;30152;52.066;5.358;2023-07-13T09:53:44;19.00;99.90
44447;DHT22;30152;52.066;5.358;2023-07-13T09:56:23;19.00;99.90
44447;DHT22;30152;52.066;5.358;2023-07-13T09:58:50;18.40;99.90
44447;DHT22;30152;52.066;5.358;2023-07-13T10:01:15;18.90;99.90
44447;DHT22;30152;52.066;5.358;2023-07-13T10:03:53;19.10;99.90
44447;DHT22;30152;52.066;5.358;2023-07-13T10:06:21;19.00;99.90
44447;DHT22;30152;52.066;5.358;2023-07-13T10:08:52;18.80;99.90
44447;DHT22;30152;52.066;5.358;2023-07-13T10:11:21;17.20;99.90
44447;DHT22;30152;52.066;5.358;2023-07-13T10:13:53;18.40;99.90
44447;DHT22;30152;52.066;5.358;2023-07-13T10:16:21;18.70;99.90
44447;DHT22;30152;52.066;5.358;2023-07-13T10:19:24;19.10;99.90
44447;DHT22;30152;52.066;5.358;2023-07-13T10:21:56;19.30;99.90
44447;DHT22;30152;52.066;5.358;2023-07-13T10:24:27;19.90;99.90
44447;DHT22;30152;52.066;5.358;2023-07-13T10:27:01;20.30;99.90
44447;DHT22;30152;52.066;5.358;2023-07-13T10:29:59;20.70;99.90
44447;DHT22;30152;52.066;5.358;2023-07-13T10:32:26;20.30;99.90
44447;DHT22;30152;52.066;5.358;2023-07-13T10:34:52;19.20;99.90
44447;DHT22;30152;52.066;5.358;2023-07-13T10:37:27;19.70;99.90
44447;DHT22;30152;52.066;5.358;2023-07-13T10:39:56;20.40;99.90
44447;DHT22;30152;52.066;5.358;2023-07-13T10:42:35;20.00;99.90
44447;DHT22;30152;52.066;5.358;2023-07-13T10:45:13;20.60;99.90
44447;DHT22;30152;52.066;5.358;2023-07-13T10:47:39;20.90;98.40
44447;DHT22;30152;52.066;5.358;2023-07-13T10:50:07;20.50;98.70
44447;DHT22;30152;52.066;5.358;2023-07-13T10:52:55;20.80;97.30
44447;DHT22;30152;52.066;5.358;2023-07-13T10:56:00;21.00;96.70
44447;DHT22;30152;52.066;5.358;2023-07-13T10:58:36;21.10;95.10
44447;DHT22;30152;52.066;5.358;2023-07-13T11:01:13;21.10;95.30
44447;DHT22;30152;52.066;5.358;2023-07-13T11:18:48;21.50;96.20
44447;DHT22;30152;52.066;5.358;2023-07-13T11:23:52;22.70;95.80
44447;DHT22;30152;52.066;5.358;2023-07-13T11:27:14;21.30;94.90
44447;DHT22;30152;52.066;5.358;2023-07-13T11:31:59;21.80;94.20
44447;DHT22;30152;52.066;5.358;2023-07-13T11:34:35;22.00;94.50
44447;DHT22;30152;52.066;5.358;2023-07-13T11:37:01;22.20;93.00
44447;DHT22;30152;52.066;5.358;2023-07-13T11:39:38;22.10;93.40
44447;DHT22;30152;52.066;5.358;2023-07-13T11:42:10;22.30;94.00
44447;DHT22;30152;52.066;5.358;2023-07-13T11:44:42;22.30;94.10
44447;DHT22;30152;52.066;5.358;2023-07-13T11:47:10;21.90;94.10
44447;DHT22;30152;52.066;5.358;2023-07-13T11:49:48;21.50;97.00
44447;DHT22;30152;52.066;5.358;2023-07-13T11:52:25;20.90;99.90
44447;DHT22;30152;52.066;5.358;2023-07-13T11:54:57;20.10;99.90
44447;DHT22;30152;52.066;5.358;2023-07-13T11:57:33;20.30;99.90
44447;DHT22;30152;52.066;5.358;2023-07-13T12:00:44;20.10;99.90
44447;DHT22;30152;52.066;5.358;2023-07-13T12:02:54;19.40;99.90
44447;DHT22;30152;52.066;5.358;2023-07-13T12:05:21;20.80;99.90
44447;DHT22;30152;52.066;5.358;2023-07-13T12:07:47;20.40;99.90
44447;DHT22;30152;52.066;5.358;2023-07-13T12:12:52;21.10;99.90
44447;DHT22;30152;52.066;5.358;2023-07-13T12:15:19;21.50;99.70
44447;DHT22;30152;52.066;5.358;2023-07-13T12:17:47;20.70;98.80
44447;DHT22;30152;52.066;5.358;2023-07-13T12:22:47;21.40;98.50
44447;DHT22;30152;52.066;5.358;2023-07-13T12:25:13;21.70;96.60
44447;DHT22;30152;52.066;5.358;2023-07-13T12:30:31;21.70;96.30
44447;DHT22;30152;52.066;5.358;2023-07-13T12:33:07;21.40;97.20
44447;DHT22;30152;52.066;5.358;2023-07-13T12:35:40;21.30;98.30
44447;DHT22;30152;52.066;5.358;2023-07-13T12:38:10;21.10;97.40
44447;DHT22;30152;52.066;5.358;2023-07-13T12:40:37;21.30;96.10
44447;DHT22;30152;52.066;5.358;2023-07-13T12:43:04;21.70;96.00
44447;DHT22;30152;52.066;5.358;2023-07-13T12:48:15;21.90;92.50
44447;DHT22;30152;52.066;5.358;2023-07-13T12:50:45;21.40;92.30
44447;DHT22;30152;52.066;5.358;2023-07-13T12:53:14;22.20;92.90
44447;DHT22;30152;52.066;5.358;2023-07-13T12:55:42;21.60;91.50
44447;DHT22;30152;52.066;5.358;2023-07-13T12:58:25;21.90;92.30
44447;DHT22;30152;52.066;5.358;2023-07-13T13:00:54;21.80;91.60
44447;DHT22;30152;52.066;5.358;2023-07-13T13:03:35;22.10;92.10
44447;DHT22;30152;52.066;5.358;2023-07-13T13:06:26;22.10;92.50
44447;DHT22;30152;52.066;5.358;2023-07-13T13:08:54;22.30;91.40
44447;DHT22;30152;52.066;5.358;2023-07-13T13:11:22;22.20;92.10
44447;DHT22;30152;52.066;5.358;2023-07-13T13:13:49;22.50;90.80
44447;DHT22;30152;52.066;5.358;2023-07-13T13:18:51;22.30;90.30
44447;DHT22;30152;52.066;5.358;2023-07-13T13:21:17;22.20;90.60
44447;DHT22;30152;52.066;5.358;2023-07-13T13:26:15;21.70;91.30
44447;DHT22;30152;52.066;5.358;2023-07-13T13:28:42;22.20;91.10
44447;DHT22;30152;52.066;5.358;2023-07-13T13:31:09;23.00;90.10
44447;DHT22;30152;52.066;5.358;2023-07-13T13:33:38;22.00;90.90
44447;DHT22;30152;52.066;5.358;2023-07-13T13:36:14;22.20;90.60
44447;DHT22;30152;52.066;5.358;2023-07-13T13:38:41;22.50;90.40
44447;DHT22;30152;52.066;5.358;2023-07-13T13:41:11;22.50;90.10
44447;DHT22;30152;52.066;5.358;2023-07-13T13:43:39;22.70;89.40
44447;DHT22;30152;52.066;5.358;2023-07-13T13:46:18;23.10;89.90
44447;DHT22;30152;52.066;5.358;2023-07-13T13:48:44;22.60;88.00
44447;DHT22;30152;52.066;5.358;2023-07-13T13:51:16;22.90;89.00
44447;DHT22;30152;52.066;5.358;2023-07-13T14:03:27;23.30;87.00
44447;DHT22;30152;52.066;5.358;2023-07-13T14:08:20;23.30;83.90
44447;DHT22;30152;52.066;5.358;2023-07-13T14:10:49;22.70;84.20
44447;DHT22;30152;52.066;5.358;2023-07-13T14:13:36;23.10;84.20
44447;DHT22;30152;52.066;5.358;2023-07-13T14:16:14;23.20;84.70
44447;DHT22;30152;52.066;5.358;2023-07-13T14:21:18;23.10;87.40
44447;DHT22;30152;52.066;5.358;2023-07-13T14:23:45;22.50;85.30
44447;DHT22;30152;52.066;5.358;2023-07-13T14:26:17;22.70;84.10
44447;DHT22;30152;52.066;5.358;2023-07-13T14:28:45;23.00;84.90
44447;DHT22;30152;52.066;5.358;2023-07-13T14:31:14;22.80;85.30
44447;DHT22;30152;52.066;5.358;2023-07-13T14:36:23;23.10;88.70
44447;DHT22;30152;52.066;5.358;2023-07-13T14:43:42;22.50;88.80
44447;DHT22;30152;52.066;5.358;2023-07-13T14:46:22;22.50;89.90
44447;DHT22;30152;52.066;5.358;2023-07-13T14:53:41;23.40;89.40
44447;DHT22;30152;52.066;5.358;2023-07-13T14:56:11;22.60;90.10
44447;DHT22;30152;52.066;5.358;2023-07-13T14:58:37;21.70;90.40
44447;DHT22;30152;52.066;5.358;2023-07-13T15:01:11;22.30;91.40
44447;DHT22;30152;52.066;5.358;2023-07-13T15:03:42;22.10;91.20
44447;DHT22;30152;52.066;5.358;2023-07-13T15:06:12;22.20;91.60
44447;DHT22;30152;52.066;5.358;2023-07-13T15:08:39;22.40;90.40
44447;DHT22;30152;52.066;5.358;2023-07-13T15:11:09;22.50;90.60
44447;DHT22;30152;52.066;5.358;2023-07-13T15:13:39;22.70;89.30
44447;DHT22;30152;52.066;5.358;2023-07-13T15:16:10;23.10;88.20
44447;DHT22;30152;52.066;5.358;2023-07-13T15:18:39;23.40;87.80
44447;DHT22;30152;52.066;5.358;2023-07-13T15:21:09;24.00;83.60
44447;DHT22;30152;52.066;5.358;2023-07-13T15:23:35;23.80;81.00
44447;DHT22;30152;52.066;5.358;2023-07-13T15:28:28;23.60;81.00
44447;DHT22;30152;52.066;5.358;2023-07-13T15:30:54;24.10;79.60
44447;DHT22;30152;52.066;5.358;2023-07-13T15:33:24;23.70;82.50
44447;DHT22;30152;52.066;5.358;2023-07-13T15:38:22;23.50;78.90
44447;DHT22;30152;52.066;5.358;2023-07-13T15:40:49;23.90;77.80
44447;DHT22;30152;52.066;5.358;2023-07-13T15:43:17;23.70;78.80
44447;DHT22;30152;52.066;5.358;2023-07-13T15:45:43;23.60;80.30
44447;DHT22;30152;52.066;5.358;2023-07-13T15:50:47;23.40;80.70
44447;DHT22;30152;52.066;5.358;2023-07-13T15:53:24;23.30;83.10
44447;DHT22;30152;52.066;5.358;2023-07-13T15:55:51;22.80;82.60
44447;DHT22;30152;52.066;5.358;2023-07-13T15:58:18;23.30;80.70
44447;DHT22;30152;52.066;5.358;2023-07-13T16:00:44;22.10;81.20
44447;DHT22;30152;52.066;5.358;2023-07-13T16:03:10;22.20;83.30
44447;DHT22;30152;52.066;5.358;2023-07-13T16:08:02;23.10;85.30
44447;DHT22;30152;52.066;5.358;2023-07-13T16:10:36;22.40;85.60
44447;DHT22;30152;52.066;5.358;2023-07-13T16:13:13;22.60;85.20
44447;DHT22;30152;52.066;5.358;2023-07-13T16:15:39;22.70;85.50
44447;DHT22;30152;52.066;5.358;2023-07-13T16:20:37;22.50;86.70
44447;DHT22;30152;52.066;5.358;2023-07-13T16:23:03;22.90;88.10
44447;DHT22;30152;52.066;5.358;2023-07-13T16:25:29;23.10;86.70
44447;DHT22;30152;52.066;5.358;2023-07-13T16:27:58;21.80;86.30
44447;DHT22;30152;52.066;5.358;2023-07-13T16:30:28;22.20;87.00
44447;DHT22;30152;52.066;5.358;2023-07-13T16:33:00;21.20;85.80
44447;DHT22;30152;52.066;5.358;2023-07-13T16:35:34;21.60;86.40
44447;DHT22;30152;52.066;5.358;2023-07-13T16:38:18;21.30;87.70
44447;DHT22;30152;52.066;5.358;2023-07-13T16:40:44;21.70;87.60
44447;DHT22;30152;52.066;5.358;2023-07-13T16:43:15;21.50;87.00
44447;DHT22;30152;52.066;5.358;2023-07-13T16:45:43;21.50;87.40
44447;DHT22;30152;52.066;5.358;2023-07-13T16:48:13;22.10;88.90
44447;DHT22;30152;52.066;5.358;2023-07-13T16:50:44;21.20;86.20
44447;DHT22;30152;52.066;5.358;2023-07-13T16:53:18;21.40;87.70
44447;DHT22;30152;52.066;5.358;2023-07-13T16:58:11;21.50;87.60
44447;DHT22;30152;52.066;5.358;2023-07-13T17:00:37;21.40;86.20
44447;DHT22;30152;52.066;5.358;2023-07-13T17:03:05;21.40;86.70
44447;DHT22;30152;52.066;5.358;2023-07-13T17:05:36;21.40;89.10
44447;DHT22;30152;52.066;5.358;2023-07-13T17:08:12;21.30;87.50
44447;DHT22;30152;52.066;5.358;2023-07-13T17:10:39;21.70;85.90
44447;DHT22;30152;52.066;5.358;2023-07-13T17:13:10;21.30;87.00
44447;DHT22;30152;52.066;5.358;2023-07-13T17:15:36;21.10;85.40
44447;DHT22;30152;52.066;5.358;2023-07-13T17:18:03;21.30;86.30
44447;DHT22;30152;52.066;5.358;2023-07-13T17:20:33;21.30;85.70
44447;DHT22;30152;52.066;5.358;2023-07-13T17:23:05;21.50;87.10
44447;DHT22;30152;52.066;5.358;2023-07-13T17:25:34;21.40;88.40
44447;DHT22;30152;52.066;5.358;2023-07-13T17:28:00;21.50;88.30
44447;DHT22;30152;52.066;5.358;2023-07-13T17:30:26;21.50;88.20
44447;DHT22;30152;52.066;5.358;2023-07-13T17:32:54;21.40;87.90
44447;DHT22;30152;52.066;5.358;2023-07-13T17:35:24;21.50;87.80
44447;DHT22;30152;52.066;5.358;2023-07-13T17:37:56;21.10;86.90
44447;DHT22;30152;52.066;5.358;2023-07-13T17:40:22;21.20;87.30
44447;DHT22;30152;52.066;5.358;2023-07-13T17:42:50;21.00;87.70
44447;DHT22;30152;52.066;5.358;2023-07-13T17:45:20;21.00;88.10
44447;DHT22;30152;52.066;5.358;2023-07-13T17:47:47;20.70;89.00
44447;DHT22;30152;52.066;5.358;2023-07-13T17:50:16;20.70;90.00
44447;DHT22;30152;52.066;5.358;2023-07-13T17:52:43;21.30;89.90
44447;DHT22;30152;52.066;5.358;2023-07-13T17:55:16;21.10;88.70
44447;DHT22;30152;52.066;5.358;2023-07-13T17:57:44;21.00;89.30
44447;DHT22;30152;52.066;5.358;2023-07-13T18:00:13;20.70;89.80
44447;DHT22;30152;52.066;5.358;2023-07-13T18:05:36;20.50;90.30
44447;DHT22;30152;52.066;5.358;2023-07-13T18:08:03;21.00;90.60
44447;DHT22;30152;52.066;5.358;2023-07-13T18:10:31;20.20;90.60
44447;DHT22;30152;52.066;5.358;2023-07-13T18:12:57;20.60;90.70
44447;DHT22;30152;52.066;5.358;2023-07-13T18:15:24;20.70;90.70
44447;DHT22;30152;52.066;5.358;2023-07-13T18:17:52;21.00;91.50
44447;DHT22;30152;52.066;5.358;2023-07-13T18:20:20;20.80;91.30
44447;DHT22;30152;52.066;5.358;2023-07-13T18:22:50;20.80;91.50
44447;DHT22;30152;52.066;5.358;2023-07-13T18:25:19;20.60;91.30
44447;DHT22;30152;52.066;5.358;2023-07-13T18:27:45;21.00;91.50
44447;DHT22;30152;52.066;5.358;2023-07-13T18:30:17;20.60;91.70
44447;DHT22;30152;52.066;5.358;2023-07-13T18:32:46;20.10;91.50
44447;DHT22;30152;52.066;5.358;2023-07-13T18:35:21;20.80;92.10
44447;DHT22;30152;52.066;5.358;2023-07-13T18:40:17;20.10;92.60
44447;DHT22;30152;52.066;5.358;2023-07-13T18:42:44;20.60;92.50
44447;DHT22;30152;52.066;5.358;2023-07-13T18:45:15;20.60;92.80
44447;DHT22;30152;52.066;5.358;2023-07-13T18:47:43;20.30;92.00
44447;DHT22;30152;52.066;5.358;2023-07-13T18:50:16;20.20;92.00
44447;DHT22;30152;52.066;5.358;2023-07-13T18:52:44;20.30;92.20
44447;DHT22;30152;52.066;5.358;2023-07-13T18:55:14;20.30;93.30
44447;DHT22;30152;52.066;5.358;2023-07-13T18:57:41;20.40;93.10
44447;DHT22;30152;52.066;5.358;2023-07-13T19:00:07;19.90;93.00
44447;DHT22;30152;52.066;5.358;2023-07-13T19:02:33;20.40;93.50
44447;DHT22;30152;52.066;5.358;2023-07-13T19:04:59;19.30;93.40
44447;DHT22;30152;52.066;5.358;2023-07-13T19:07:24;19.30;93.90
44447;DHT22;30152;52.066;5.358;2023-07-13T19:09:53;19.60;93.60
44447;DHT22;30152;52.066;5.358;2023-07-13T19:12:21;19.50;93.50
44447;DHT22;30152;52.066;5.358;2023-07-13T19:14:49;19.80;93.80
44447;DHT22;30152;52.066;5.358;2023-07-13T19:17:15;19.00;93.90
44447;DHT22;30152;52.066;5.358;2023-07-13T19:19:40;19.60;94.00
44447;DHT22;30152;52.066;5.358;2023-07-13T19:22:11;19.40;94.60
44447;DHT22;30152;52.066;5.358;2023-07-13T19:24:37;18.80;94.50
44447;DHT22;30152;52.066;5.358;2023-07-13T19:27:04;18.90;95.10
44447;DHT22;30152;52.066;5.358;2023-07-13T19:29:30;19.70;95.70
44447;DHT22;30152;52.066;5.358;2023-07-13T19:31:56;19.00;95.70
44447;DHT22;30152;52.066;5.358;2023-07-13T19:34:24;19.20;96.30
44447;DHT22;30152;52.066;5.358;2023-07-13T19:36:58;19.30;96.00
44447;DHT22;30152;52.066;5.358;2023-07-13T19:39:33;18.80;96.10
44447;DHT22;30152;52.066;5.358;2023-07-13T19:42:03;19.20;96.50
44447;DHT22;30152;52.066;5.358;2023-07-13T19:44:30;18.10;96.40
44447;DHT22;30152;52.066;5.358;2023-07-13T19:46:55;18.90;97.00
44447;DHT22;30152;52.066;5.358;2023-07-13T19:49:25;18.60;97.00
44447;DHT22;30152;52.066;5.358;2023-07-13T19:51:51;18.60;97.80
44447;DHT22;30152;52.066;5.358;2023-07-13T19:54:16;18.20;98.10
44447;DHT22;30152;52.066;5.358;2023-07-13T19:56:43;18.50;98.30
44447;DHT22;30152;52.066;5.358;2023-07-13T19:59:18;18.10;98.90
44447;DHT22;30152;52.066;5.358;2023-07-13T20:04:12;18.40;99.30
44447;DHT22;30152;52.066;5.358;2023-07-13T20:06:37;18.00;99.70
44447;DHT22;30152;52.066;5.358;2023-07-13T20:09:16;17.90;99.80
44447;DHT22;30152;52.066;5.358;2023-07-13T20:11:42;17.70;99.80
44447;DHT22;30152;52.066;5.358;2023-07-13T20:14:27;18.00;99.90
44447;DHT22;30152;52.066;5.358;2023-07-13T20:17:02;17.30;99.90
44447;DHT22;30152;52.066;5.358;2023-07-13T20:19:34;17.70;99.90
44447;DHT22;30152;52.066;5.358;2023-07-13T20:22:01;17.20;99.90
44447;DHT22;30152;52.066;5.358;2023-07-13T20:24:26;17.90;99.90
44447;DHT22;30152;52.066;5.358;2023-07-13T20:29:18;17.40;99.90
44447;DHT22;30152;52.066;5.358;2023-07-13T20:31:46;17.20;99.90
44447;DHT22;30152;52.066;5.358;2023-07-13T20:34:24;17.10;99.90
44447;DHT22;30152;52.066;5.358;2023-07-13T20:36:51;17.20;99.90
44447;DHT22;30152;52.066;5.358;2023-07-13T20:39:19;17.00;99.90
44447;DHT22;30152;52.066;5.358;2023-07-13T20:41:45;16.50;99.90
44447;DHT22;30152;52.066;5.358;2023-07-13T20:44:11;16.50;99.90
44447;DHT22;30152;52.066;5.358;2023-07-13T20:49:04;17.10;99.90
44447;DHT22;30152;52.066;5.358;2023-07-13T20:51:30;16.70;99.90
44447;DHT22;30152;52.066;5.358;2023-07-13T20:56:26;16.80;99.90
44447;DHT22;30152;52.066;5.358;2023-07-13T21:01:28;16.90;99.90
44447;DHT22;30152;52.066;5.358;2023-07-13T21:03:58;16.50;99.90
44447;DHT22;30152;52.066;5.358;2023-07-13T21:06:25;16.30;99.90
44447;DHT22;30152;52.066;5.358;2023-07-13T21:13:45;16.20;99.90
44447;DHT22;30152;52.066;5.358;2023-07-13T21:16:24;16.40;99.90
44447;DHT22;30152;52.066;5.358;2023-07-13T21:18:50;16.10;99.90
44447;DHT22;30152;52.066;5.358;2023-07-13T21:21:18;16.50;99.90
44447;DHT22;30152;52.066;5.358;2023-07-13T21:23:46;16.10;99.90
44447;DHT22;30152;52.066;5.358;2023-07-13T21:26:11;16.60;99.90
44447;DHT22;30152;52.066;5.358;2023-07-13T21:28:42;16.00;99.90
44447;DHT22;30152;52.066;5.358;2023-07-13T21:31:25;15.80;99.90
44447;DHT22;30152;52.066;5.358;2023-07-13T21:33:52;16.20;99.90
44447;DHT22;30152;52.066;5.358;2023-07-13T21:41:24;16.20;99.90
44447;DHT22;30152;52.066;5.358;2023-07-13T21:43:50;15.50;99.90
44447;DHT22;30152;52.066;5.358;2023-07-13T21:48:42;16.00;99.90
44447;DHT22;30152;52.066;5.358;2023-07-13T21:51:17;15.80;99.90
44447;DHT22;30152;52.066;5.358;2023-07-13T21:56:10;15.80;99.90
44447;DHT22;30152;52.066;5.358;2023-07-13T21:58:37;16.10;99.90
44447;DHT22;30152;52.066;5.358;2023-07-13T22:01:04;15.70;99.90
44447;DHT22;30152;52.066;5.358;2023-07-13T22:03:37;16.20;99.90
44447;DHT22;30152;52.066;5.358;2023-07-13T22:06:04;15.30;99.90
